sensor_id;sensor_type;location;lat;lon;timestamp;pressure;altitude;pressure_sealevel;temperature;humidity
19672;BME280;9983;51.114;13.788;2023-04-01T00:00:21;97582.03;;;10.77;100.00
19672;BME280;9983;51.114;13.788;2023-04-01T00:05:21;97582.63;;;10.97;100.00
19672;BME280;9983;51.114;13.788;2023-04-01T00:10:21;97575.78;;;11.19;100.00
19672;BME280;9983;51.114;13.788;2023-04-01T00:15:22;97581.00;;;10.96;100.00
19672;BME280;9983;51.114;13.788;2023-04-01T00:20:22;97583.34;;;11.22;100.00
19672;BME280;9983;51.114;13.788;2023-04-01T00:25:23;97585.91;;;10.99;100.00
19672;BME280;9983;51.114;13.788;2023-04-01T00:30:23;97587.84;;;11.10;100.00
19672;BME280;9983;51.114;13.788;2023-04-01T00:35:23;97579.63;;;11.23;100.00
19672;BME280;9983;51.114;13.788;2023-04-01T00:40:28;97584.06;;;11.48;100.00
19672;BME280;9983;51.114;13.788;2023-04-01T00:45:38;97585.91;;;10.99;100.00
19672;BME280;9983;51.114;13.788;2023-04-01T00:50:40;97582.16;;;10.82;100.00
19672;BME280;9983;51.114;13.788;2023-04-01T00:55:49;97579.50;;;10.82;100.00
19672;BME280;9983;51.114;13.788;2023-04-01T01:00:51;97586.75;;;10.56;100.00
19672;BME280;9983;51.114;13.788;2023-04-01T01:11:46;97575.63;;;11.14;100.00
19672;BME280;9983;51.114;13.788;2023-04-01T01:16:53;97580.81;;;10.73;100.00
19672;BME280;9983;51.114;13.788;2023-04-01T01:22:22;97585.47;;;11.02;100.00
19672;BME280;9983;51.114;13.788;2023-04-01T01:27:26;97582.47;;;10.92;100.00
19672;BME280;9983;51.114;13.788;2023-04-01T01:32:42;97574.72;;;10.65;100.00
19672;BME280;9983;51.114;13.788;2023-04-01T01:37:52;97588.94;;;10.41;100.00
19672;BME280;9983;51.114;13.788;2023-04-01T01:42:57;97583.34;;;10.68;100.00
19672;BME280;9983;51.114;13.788;2023-04-01T01:48:00;97581.13;;;10.83;100.00
19672;BME280;9983;51.114;13.788;2023-04-01T01:53:04;97579.63;;;11.05;100.00
19672;BME280;9983;51.114;13.788;2023-04-01T01:58:11;97578.88;;;11.34;100.00
19672;BME280;9983;51.114;13.788;2023-04-01T02:03:14;97585.78;;;11.12;100.00
19672;BME280;9983;51.114;13.788;2023-04-01T02:08:20;97590.66;;;10.97;100.00
19672;BME280;9983;51.114;13.788;2023-04-01T02:13:29;97581.56;;;10.80;100.00
19672;BME280;9983;51.114;13.788;2023-04-01T02:18:33;97585.91;;;10.99;100.00
19672;BME280;9983;51.114;13.788;2023-04-01T02:23:35;97583.97;;;10.88;100.00
19672;BME280;9983;51.114;13.788;2023-04-01T02:28:37;97584.69;;;10.58;100.00
19672;BME280;9983;51.114;13.788;2023-04-01T02:33:40;97582.00;;;11.13;100.00
19672;BME280;9983;51.114;13.788;2023-04-01T02:38:43;97590.13;;;10.88;100.00
19672;BME280;9983;51.114;13.788;2023-04-01T02:43:44;97593.41;;;10.90;100.00
19672;BME280;9983;51.114;13.788;2023-04-01T02:48:44;97593.19;;;10.74;100.00
19672;BME280;9983;51.114;13.788;2023-04-01T02:53:45;97598.94;;;10.77;100.00
19672;BME280;9983;51.114;13.788;2023-04-01T02:58:45;97595.13;;;10.85;100.00
19672;BME280;9983;51.114;13.788;2023-04-01T03:03:46;97604.97;;;11.46;100.00
19672;BME280;9983;51.114;13.788;2023-04-01T03:08:46;97604.66;;;10.81;100.00
19672;BME280;9983;51.114;13.788;2023-04-01T03:13:47;97607.94;;;10.83;100.00
19672;BME280;9983;51.114;13.788;2023-04-01T03:18:47;97615.69;;;10.91;100.00
19672;BME280;9983;51.114;13.788;2023-04-01T03:23:49;97613.75;;;11.16;100.00
19672;BME280;9983;51.114;13.788;2023-04-01T03:28:50;97615.72;;;11.27;100.00
19672;BME280;9983;51.114;13.788;2023-04-01T03:33:50;97625.81;;;11.07;100.00
19672;BME280;9983;51.114;13.788;2023-04-01T03:38:50;97627.41;;;10.72;100.00
19672;BME280;9983;51.114;13.788;2023-04-01T03:43:51;97625.34;;;10.74;100.00
19672;BME280;9983;51.114;13.788;2023-04-01T03:48:51;97619.31;;;10.96;100.00
19672;BME280;9983;51.114;13.788;2023-04-01T03:53:51;97629.53;;;11.06;100.00
19672;BME280;9983;51.114;13.788;2023-04-01T03:58:51;97627.47;;;11.08;100.00
19672;BME280;9983;51.114;13.788;2023-04-01T04:03:52;97634.63;;;10.96;100.00
19672;BME280;9983;51.114;13.788;2023-04-01T04:08:52;97625.16;;;10.93;100.00
19672;BME280;9983;51.114;13.788;2023-04-01T04:13:53;97630.72;;;11.47;100.00
19672;BME280;9983;51.114;13.788;2023-04-01T04:18:53;97641.31;;;11.23;100.00
19672;BME280;9983;51.114;13.788;2023-04-01T04:23:53;97632.69;;;11.03;100.00
19672;BME280;9983;51.114;13.788;2023-04-01T04:28:54;97642.06;;;11.30;100.00
19672;BME280;9983;51.114;13.788;2023-04-01T04:33:55;97646.84;;;11.10;100.00
19672;BME280;9983;51.114;13.788;2023-04-01T04:38:55;97652.34;;;11.33;100.00
19672;BME280;9983;51.114;13.788;2023-04-01T04:43:56;97660.78;;;11.19;100.00
19672;BME280;9983;51.114;13.788;2023-04-01T04:48:57;97665.72;;;10.79;100.00
19672;BME280;9983;51.114;13.788;2023-04-01T04:53:57;97666.22;;;11.49;100.00
19672;BME280;9983;51.114;13.788;2023-04-01T04:58:58;97657.41;;;11.23;100.00
19672;BME280;9983;51.114;13.788;2023-04-01T05:03:59;97676.19;;;10.80;100.00
19672;BME280;9983;51.114;13.788;2023-04-01T05:08:59;97681.78;;;11.03;100.00
19672;BME280;9983;51.114;13.788;2023-04-01T05:13:59;97682.75;;;11.09;100.00
19672;BME280;9983;51.114;13.788;2023-04-01T05:19:00;97680.97;;;11.39;100.00
19672;BME280;9983;51.114;13.788;2023-04-01T05:24:00;97686.63;;;11.31;100.00
19672;BME280;9983;51.114;13.788;2023-04-01T05:29:00;97694.84;;;11.55;100.00
19672;BME280;9983;51.114;13.788;2023-04-01T05:34:00;97698.88;;;11.46;100.00
19672;BME280;9983;51.114;13.788;2023-04-01T05:39:01;97700.91;;;11.07;100.00
19672;BME280;9983;51.114;13.788;2023-04-01T05:44:02;97700.03;;;11.31;100.00
19672;BME280;9983;51.114;13.788;2023-04-01T05:49:02;97704.53;;;10.94;100.00
19672;BME280;9983;51.114;13.788;2023-04-01T05:54:04;97706.41;;;10.94;100.00
19672;BME280;9983;51.114;13.788;2023-04-01T05:59:05;97712.38;;;11.14;100.00
19672;BME280;9983;51.114;13.788;2023-04-01T06:04:05;97701.84;;;11.37;100.00
19672;BME280;9983;51.114;13.788;2023-04-01T06:09:17;97710.31;;;11.16;100.00
19672;BME280;9983;51.114;13.788;2023-04-01T06:14:43;97707.22;;;11.37;100.00
19672;BME280;9983;51.114;13.788;2023-04-01T06:19:51;97715.88;;;11.76;100.00
19672;BME280;9983;51.114;13.788;2023-04-01T06:30:22;97719.28;;;11.47;100.00
19672;BME280;9983;51.114;13.788;2023-04-01T06:41:16;97722.56;;;11.67;100.00
19672;BME280;9983;51.114;13.788;2023-04-01T06:46:36;97732.97;;;12.30;100.00
19672;BME280;9983;51.114;13.788;2023-04-01T06:57:35;97729.59;;;12.04;100.00
19672;BME280;9983;51.114;13.788;2023-04-01T07:02:46;97732.16;;;12.11;100.00
19672;BME280;9983;51.114;13.788;2023-04-01T07:07:54;97738.22;;;12.06;100.00
19672;BME280;9983;51.114;13.788;2023-04-01T07:13:00;97735.78;;;12.35;100.00
19672;BME280;9983;51.114;13.788;2023-04-01T07:18:28;97739.59;;;12.27;100.00
19672;BME280;9983;51.114;13.788;2023-04-01T07:23:29;97745.09;;;12.02;100.00
19672;BME280;9983;51.114;13.788;2023-04-01T07:28:32;97751.06;;;12.04;100.00
19672;BME280;9983;51.114;13.788;2023-04-01T07:33:43;97740.75;;;12.61;100.00
19672;BME280;9983;51.114;13.788;2023-04-01T07:39:06;97754.53;;;12.53;100.00
19672;BME280;9983;51.114;13.788;2023-04-01T07:44:25;97745.53;;;11.81;100.00
19672;BME280;9983;51.114;13.788;2023-04-01T07:50:12;97758.44;;;12.69;100.00
19672;BME280;9983;51.114;13.788;2023-04-01T07:55:27;97762.78;;;12.81;100.00
19672;BME280;9983;51.114;13.788;2023-04-01T08:00:50;97765.59;;;12.45;100.00
19672;BME280;9983;51.114;13.788;2023-04-01T08:06:03;97770.00;;;12.09;100.00
19672;BME280;9983;51.114;13.788;2023-04-01T08:17:05;97778.03;;;13.11;99.77
19672;BME280;9983;51.114;13.788;2023-04-01T08:22:15;97790.84;;;12.85;96.60
19672;BME280;9983;51.114;13.788;2023-04-01T08:27:28;97790.63;;;12.99;95.43
19672;BME280;9983;51.114;13.788;2023-04-01T08:32:34;97785.34;;;13.45;95.35
19672;BME280;9983;51.114;13.788;2023-04-01T08:37:39;97783.06;;;12.54;95.94
19672;BME280;9983;51.114;13.788;2023-04-01T08:42:52;97789.31;;;12.78;96.62
19672;BME280;9983;51.114;13.788;2023-04-01T08:48:41;97786.78;;;12.53;96.14
19672;BME280;9983;51.114;13.788;2023-04-01T09:10:50;97783.78;;;12.73;92.16
19672;BME280;9983;51.114;13.788;2023-04-01T09:37:35;97791.63;;;12.74;88.22
19672;BME280;9983;51.114;13.788;2023-04-01T09:42:44;97796.94;;;12.92;87.62
19672;BME280;9983;51.114;13.788;2023-04-01T09:53:53;97809.44;;;13.40;86.60
19672;BME280;9983;51.114;13.788;2023-04-01T10:15:20;97811.56;;;13.61;83.64
19672;BME280;9983;51.114;13.788;2023-04-01T10:25:57;97807.69;;;13.57;82.45
19672;BME280;9983;51.114;13.788;2023-04-01T10:31:42;97813.22;;;13.62;83.26
19672;BME280;9983;51.114;13.788;2023-04-01T10:36:51;97811.44;;;13.80;81.86
19672;BME280;9983;51.114;13.788;2023-04-01T10:47:17;97819.53;;;13.68;86.39
19672;BME280;9983;51.114;13.788;2023-04-01T10:52:40;97817.66;;;14.32;86.03
19672;BME280;9983;51.114;13.788;2023-04-01T11:03:36;97840.50;;;13.13;100.00
19672;BME280;9983;51.114;13.788;2023-04-01T11:09:07;97830.81;;;12.70;100.00
19672;BME280;9983;51.114;13.788;2023-04-01T11:19:51;97828.78;;;13.37;100.00
19672;BME280;9983;51.114;13.788;2023-04-01T11:25:20;97838.72;;;13.37;100.00
19672;BME280;9983;51.114;13.788;2023-04-01T11:30:57;97832.84;;;13.98;100.00
19672;BME280;9983;51.114;13.788;2023-04-01T11:36:41;97826.06;;;13.84;100.00
19672;BME280;9983;51.114;13.788;2023-04-01T11:41:56;97840.09;;;14.09;100.00
19672;BME280;9983;51.114;13.788;2023-04-01T11:58:23;97846.66;;;13.90;100.00
19672;BME280;9983;51.114;13.788;2023-04-01T12:19:59;97838.84;;;15.42;82.92
19672;BME280;9983;51.114;13.788;2023-04-01T12:25:26;97841.13;;;15.50;84.89
19672;BME280;9983;51.114;13.788;2023-04-01T12:30:42;97839.13;;;14.15;89.92
19672;BME280;9983;51.114;13.788;2023-04-01T12:36:18;97837.94;;;15.03;82.04
19672;BME280;9983;51.114;13.788;2023-04-01T12:41:29;97840.69;;;14.91;82.34
19672;BME280;9983;51.114;13.788;2023-04-01T12:46:52;97841.41;;;15.65;74.67
19672;BME280;9983;51.114;13.788;2023-04-01T12:52:11;97840.00;;;15.96;74.18
19672;BME280;9983;51.114;13.788;2023-04-01T12:57:33;97844.75;;;15.89;72.57
19672;BME280;9983;51.114;13.788;2023-04-01T13:08:07;97843.91;;;16.49;70.96
19672;BME280;9983;51.114;13.788;2023-04-01T13:13:24;97845.13;;;16.80;71.98
19672;BME280;9983;51.114;13.788;2023-04-01T13:18:43;97843.84;;;17.14;67.23
19672;BME280;9983;51.114;13.788;2023-04-01T13:24:21;97851.53;;;15.91;69.79
19672;BME280;9983;51.114;13.788;2023-04-01T13:29:34;97842.06;;;16.11;69.95
19672;BME280;9983;51.114;13.788;2023-04-01T13:34:51;97844.56;;;15.96;71.99
19672;BME280;9983;51.114;13.788;2023-04-01T13:40:17;97855.34;;;14.95;76.29
19672;BME280;9983;51.114;13.788;2023-04-01T13:45:24;97870.75;;;14.31;92.35
19672;BME280;9983;51.114;13.788;2023-04-01T13:50:44;97862.56;;;15.40;93.00
19672;BME280;9983;51.114;13.788;2023-04-01T13:55:55;97868.66;;;15.47;88.51
19672;BME280;9983;51.114;13.788;2023-04-01T14:01:08;97872.19;;;16.80;81.52
19672;BME280;9983;51.114;13.788;2023-04-01T14:06:47;97866.38;;;16.93;81.88
19672;BME280;9983;51.114;13.788;2023-04-01T14:12:16;97868.25;;;16.27;81.13
19672;BME280;9983;51.114;13.788;2023-04-01T14:28:22;97884.88;;;15.80;79.56
19672;BME280;9983;51.114;13.788;2023-04-01T14:33:43;97888.66;;;15.79;76.33
19672;BME280;9983;51.114;13.788;2023-04-01T14:39:18;97891.91;;;15.48;74.82
19672;BME280;9983;51.114;13.788;2023-04-01T14:44:57;97890.25;;;15.47;77.44
19672;BME280;9983;51.114;13.788;2023-04-01T14:50:26;97890.69;;;14.82;78.93
19672;BME280;9983;51.114;13.788;2023-04-01T14:55:29;97889.25;;;15.36;77.81
19672;BME280;9983;51.114;13.788;2023-04-01T15:17:13;97904.09;;;18.74;59.64
19672;BME280;9983;51.114;13.788;2023-04-01T15:33:35;97923.53;;;16.75;57.75
19672;BME280;9983;51.114;13.788;2023-04-01T15:38:45;97937.47;;;15.89;60.31
19672;BME280;9983;51.114;13.788;2023-04-01T15:43:49;97941.53;;;16.09;61.82
19672;BME280;9983;51.114;13.788;2023-04-01T15:49:22;97939.03;;;16.24;64.01
19672;BME280;9983;51.114;13.788;2023-04-01T16:00:02;97945.75;;;16.38;60.65
19672;BME280;9983;51.114;13.788;2023-04-01T16:05:30;97946.66;;;15.32;65.90
19672;BME280;9983;51.114;13.788;2023-04-01T16:16:03;97962.34;;;15.18;66.64
19672;BME280;9983;51.114;13.788;2023-04-01T16:21:14;97969.19;;;15.09;67.25
19672;BME280;9983;51.114;13.788;2023-04-01T16:27:02;97964.34;;;15.23;68.25
19672;BME280;9983;51.114;13.788;2023-04-01T16:37:22;97982.91;;;15.07;72.54
19672;BME280;9983;51.114;13.788;2023-04-01T16:42:51;97988.28;;;14.79;72.13
19672;BME280;9983;51.114;13.788;2023-04-01T16:48:10;97989.13;;;14.68;71.54
19672;BME280;9983;51.114;13.788;2023-04-01T16:53:17;97996.53;;;15.12;70.31
19672;BME280;9983;51.114;13.788;2023-04-01T16:58:26;98004.03;;;15.10;70.71
19672;BME280;9983;51.114;13.788;2023-04-01T17:03:39;98005.84;;;15.05;71.31
19672;BME280;9983;51.114;13.788;2023-04-01T17:14:05;98032.94;;;14.98;72.98
19672;BME280;9983;51.114;13.788;2023-04-01T17:19:33;98034.03;;;14.86;78.64
19672;BME280;9983;51.114;13.788;2023-04-01T17:25:17;98045.38;;;14.29;84.88
19672;BME280;9983;51.114;13.788;2023-04-01T17:35:31;98053.97;;;13.85;87.41
19672;BME280;9983;51.114;13.788;2023-04-01T17:45:56;98065.66;;;13.79;92.74
19672;BME280;9983;51.114;13.788;2023-04-01T17:51:17;98072.22;;;13.83;93.85
19672;BME280;9983;51.114;13.788;2023-04-01T18:02:30;98084.47;;;13.97;93.30
19672;BME280;9983;51.114;13.788;2023-04-01T18:18:36;98101.16;;;14.17;96.47
19672;BME280;9983;51.114;13.788;2023-04-01T18:23:46;98100.88;;;14.07;98.58
19672;BME280;9983;51.114;13.788;2023-04-01T18:29:22;98105.19;;;13.96;99.58
19672;BME280;9983;51.114;13.788;2023-04-01T18:34:59;98123.28;;;13.78;100.00
19672;BME280;9983;51.114;13.788;2023-04-01T18:40:32;98127.94;;;13.71;100.00
19672;BME280;9983;51.114;13.788;2023-04-01T18:45:43;98138.19;;;13.80;100.00
19672;BME280;9983;51.114;13.788;2023-04-01T18:50:51;98144.97;;;13.83;100.00
19672;BME280;9983;51.114;13.788;2023-04-01T18:55:56;98152.00;;;13.84;100.00
19672;BME280;9983;51.114;13.788;2023-04-01T19:01:15;98149.00;;;13.74;100.00
19672;BME280;9983;51.114;13.788;2023-04-01T19:06:35;98158.91;;;13.61;100.00
19672;BME280;9983;51.114;13.788;2023-04-01T19:11:44;98159.97;;;13.60;100.00
19672;BME280;9983;51.114;13.788;2023-04-01T19:17:10;98175.25;;;13.30;100.00
19672;BME280;9983;51.114;13.788;2023-04-01T19:22:35;98168.34;;;13.52;100.00
19672;BME280;9983;51.114;13.788;2023-04-01T19:27:50;98175.50;;;13.40;100.00
19672;BME280;9983;51.114;13.788;2023-04-01T19:33:12;98179.13;;;13.52;100.00
19672;BME280;9983;51.114;13.788;2023-04-01T19:38:30;98187.78;;;13.18;100.00
19672;BME280;9983;51.114;13.788;2023-04-01T19:44:18;98193.41;;;13.35;100.00
19672;BME280;9983;51.114;13.788;2023-04-01T19:54:28;98205.88;;;13.29;100.00
19672;BME280;9983;51.114;13.788;2023-04-01T19:59:59;98204.16;;;13.35;100.00
19672;BME280;9983;51.114;13.788;2023-04-01T20:10:22;98220.31;;;13.10;100.00
19672;BME280;9983;51.114;13.788;2023-04-01T20:15:35;98227.41;;;13.29;100.00
19672;BME280;9983;51.114;13.788;2023-04-01T20:20:37;98229.66;;;13.14;100.00
19672;BME280;9983;51.114;13.788;2023-04-01T20:25:51;98230.03;;;13.11;100.00
19672;BME280;9983;51.114;13.788;2023-04-01T20:31:19;98237.84;;;13.19;100.00
19672;BME280;9983;51.114;13.788;2023-04-01T20:36:36;98245.53;;;12.90;100.00
19672;BME280;9983;51.114;13.788;2023-04-01T20:41:40;98253.00;;;12.88;100.00
19672;BME280;9983;51.114;13.788;2023-04-01T20:46:54;98257.38;;;13.08;100.00
19672;BME280;9983;51.114;13.788;2023-04-01T20:57:19;98265.28;;;13.03;100.00
19672;BME280;9983;51.114;13.788;2023-04-01T21:02:47;98266.59;;;12.93;100.00
19672;BME280;9983;51.114;13.788;2023-04-01T21:13:39;98285.41;;;12.69;100.00
19672;BME280;9983;51.114;13.788;2023-04-01T21:19:00;98278.84;;;12.58;100.00
19672;BME280;9983;51.114;13.788;2023-04-01T21:24:39;98301.28;;;12.39;100.00
19672;BME280;9983;51.114;13.788;2023-04-01T21:40:35;98325.38;;;12.21;100.00
19672;BME280;9983;51.114;13.788;2023-04-01T21:46:18;98332.06;;;11.98;100.00
19672;BME280;9983;51.114;13.788;2023-04-01T22:02:25;98339.94;;;11.80;100.00
19672;BME280;9983;51.114;13.788;2023-04-01T22:07:42;98344.91;;;11.83;100.00
19672;BME280;9983;51.114;13.788;2023-04-01T22:12:52;98346.56;;;11.71;100.00
19672;BME280;9983;51.114;13.788;2023-04-01T22:18:02;98355.88;;;11.42;100.00
19672;BME280;9983;51.114;13.788;2023-04-01T22:28:18;98367.66;;;11.34;100.00
19672;BME280;9983;51.114;13.788;2023-04-01T22:33:32;98367.22;;;11.24;100.00
19672;BME280;9983;51.114;13.788;2023-04-01T22:43:47;98385.34;;;10.83;100.00
19672;BME280;9983;51.114;13.788;2023-04-01T22:54:04;98405.13;;;10.82;100.00
19672;BME280;9983;51.114;13.788;2023-04-01T22:59:16;98401.47;;;11.22;100.00
19672;BME280;9983;51.114;13.788;2023-04-01T23:04:22;98413.41;;;10.87;100.00
19672;BME280;9983;51.114;13.788;2023-04-01T23:09:25;98419.38;;;10.89;100.00
19672;BME280;9983;51.114;13.788;2023-04-01T23:19:54;98443.47;;;10.76;100.00
19672;BME280;9983;51.114;13.788;2023-04-01T23:40:53;98478.50;;;10.68;100.00
19672;BME280;9983;51.114;13.788;2023-04-01T23:45:55;98482.16;;;10.60;100.00
19672;BME280;9983;51.114;13.788;2023-04-01T23:50:56;98496.78;;;10.57;100.00
19672;BME280;9983;51.114;13.788;2023-04-01T23:55:58;98502.69;;;10.12;100.00
